Terminal Aerodrome Forecast
Issued by NWS

Home | Current Version | Previous Version | Text Only | Print | Product List | Glossary On
Versions: 1 2 3 4 5 6 7 8 9 10 11 12 13 14 15 16
000
FTUS42 KMLB 231700
TAFSUA
TAF
KSUA 231729Z 2318/2418 04011KT P6SM SCT025
     FM240400 06011KT P6SM VCSH SCT030 BKN080 BKN250
     FM241400 05012KT P6SM VCSH SCT060 BKN200=

USA.gov is the U.S. government's official web portal to all federal, state and local government web resources and services.